Kenansville, Florida
Current Conditions -  °F | °C
As of 8:53 AM on Saturday 22 Nov 2014 (Local Time) from KMLB Reporting Station
Haze Haze  
Wind Chill: 73°   Ceiling: 3500
Heat Index: 73°   Visibility: 4mi
Dew Point: 65°   Wind: 15mph
Humidity: 76%   Direction: 80°E
Pressure: 30.24"   Gusts: NA
Location:  27.88°N, 80.99°W
Report Text: KMLB 221353Z 08013KT 4SM HZ SCT015 BKN035 OVC043 23/18 A3024 RMK AO2 RAB00E45 SLP241 P0003 T02280183
Loading
Personal Weather Stations






























Interactive Weather Map New forecast layout! Learn more

10-Day Weather Forecast

Advertisements
Track Severe Weather on mobile